Emerald, Australia
Current Conditions -  °F | °C
As of 6:00 AM on Friday 19 Dec 2014 (Local Time) from YEML Reporting Station
Broken Clouds Broken Clouds  
Wind Chill: 70°   Ceiling: 600
Heat Index: 70°   Visibility: 6mi
Dew Point: 70°   Wind: 9mph
Humidity: 100%   Direction: 160°SSE
Pressure: 29.88"   Gusts: NA
Location:  23.52°S, 148.16°E
Report Text: YEML 182000Z AUTO 16008KT 9999 // BKN006 BKN120 21/21 Q1012
Loading
Personal Weather Stations






























Interactive Weather Map New forecast layout! Learn more

10-Day Weather Forecast

Advertisements
Track Severe Weather on mobile